sensor_id;sensor_type;location;lat;lon;timestamp;temperature;humidity
48946;DHT22;34999;50.940;3.998;2023-12-20T00:01:33;5.10;99.90
48946;DHT22;34999;50.940;3.998;2023-12-20T00:04:01;5.10;99.90
48946;DHT22;34999;50.940;3.998;2023-12-20T00:06:30;5.10;99.90
48946;DHT22;34999;50.940;3.998;2023-12-20T00:08:58;5.10;99.90
48946;DHT22;34999;50.940;3.998;2023-12-20T00:11:26;5.00;99.90
48946;DHT22;34999;50.940;3.998;2023-12-20T00:13:55;5.00;99.90
48946;DHT22;34999;50.940;3.998;2023-12-20T00:16:23;5.00;99.90
48946;DHT22;34999;50.940;3.998;2023-12-20T00:18:53;5.00;99.90
48946;DHT22;34999;50.940;3.998;2023-12-20T00:21:21;4.90;99.90
48946;DHT22;34999;50.940;3.998;2023-12-20T00:23:49;5.00;99.90
48946;DHT22;34999;50.940;3.998;2023-12-20T00:26:18;4.90;99.90
48946;DHT22;34999;50.940;3.998;2023-12-20T00:28:46;4.90;99.90
48946;DHT22;34999;50.940;3.998;2023-12-20T00:31:14;4.90;99.90
48946;DHT22;34999;50.940;3.998;2023-12-20T00:33:43;4.90;99.90
48946;DHT22;34999;50.940;3.998;2023-12-20T00:36:14;4.90;99.90
48946;DHT22;34999;50.940;3.998;2023-12-20T00:38:42;4.90;99.90
48946;DHT22;34999;50.940;3.998;2023-12-20T00:41:11;4.90;99.90
48946;DHT22;34999;50.940;3.998;2023-12-20T00:43:39;4.90;99.90
48946;DHT22;34999;50.940;3.998;2023-12-20T00:46:07;4.90;99.90
48946;DHT22;34999;50.940;3.998;2023-12-20T00:48:36;4.90;99.90
48946;DHT22;34999;50.940;3.998;2023-12-20T00:51:04;4.80;99.90
48946;DHT22;34999;50.940;3.998;2023-12-20T00:53:34;4.90;99.90
48946;DHT22;34999;50.940;3.998;2023-12-20T00:56:02;4.90;99.90
48946;DHT22;34999;50.940;3.998;2023-12-20T00:58:31;5.00;99.90
48946;DHT22;34999;50.940;3.998;2023-12-20T01:00:59;5.00;99.90
48946;DHT22;34999;50.940;3.998;2023-12-20T01:03:27;5.00;99.90
48946;DHT22;34999;50.940;3.998;2023-12-20T01:05:56;5.00;99.90
48946;DHT22;34999;50.940;3.998;2023-12-20T01:08:24;5.00;99.90
48946;DHT22;34999;50.940;3.998;2023-12-20T01:10:53;5.00;99.90
48946;DHT22;34999;50.940;3.998;2023-12-20T01:13:22;5.00;99.90
48946;DHT22;34999;50.940;3.998;2023-12-20T01:15:50;4.90;99.90
48946;DHT22;34999;50.940;3.998;2023-12-20T01:18:18;5.00;99.90
48946;DHT22;34999;50.940;3.998;2023-12-20T01:20:46;5.00;99.90
48946;DHT22;34999;50.940;3.998;2023-12-20T01:23:15;4.90;99.90
48946;DHT22;34999;50.940;3.998;2023-12-20T01:25:43;4.90;99.90
48946;DHT22;34999;50.940;3.998;2023-12-20T01:28:12;4.90;99.90
48946;DHT22;34999;50.940;3.998;2023-12-20T01:30:41;5.00;99.90
48946;DHT22;34999;50.940;3.998;2023-12-20T01:33:09;5.00;99.90
48946;DHT22;34999;50.940;3.998;2023-12-20T01:35:37;5.00;99.90
48946;DHT22;34999;50.940;3.998;2023-12-20T01:38:06;5.10;99.90
48946;DHT22;34999;50.940;3.998;2023-12-20T01:40:34;5.00;99.90
48946;DHT22;34999;50.940;3.998;2023-12-20T01:43:06;5.10;99.90
48946;DHT22;34999;50.940;3.998;2023-12-20T01:45:36;5.00;99.90
48946;DHT22;34999;50.940;3.998;2023-12-20T01:48:05;5.10;99.90
48946;DHT22;34999;50.940;3.998;2023-12-20T01:50:36;5.10;99.90
48946;DHT22;34999;50.940;3.998;2023-12-20T01:53:05;5.00;99.90
48946;DHT22;34999;50.940;3.998;2023-12-20T01:55:37;5.00;99.90
48946;DHT22;34999;50.940;3.998;2023-12-20T01:58:08;5.00;99.90
48946;DHT22;34999;50.940;3.998;2023-12-20T02:00:38;5.00;99.90
48946;DHT22;34999;50.940;3.998;2023-12-20T02:03:07;5.00;99.90
48946;DHT22;34999;50.940;3.998;2023-12-20T02:05:36;5.00;99.90
48946;DHT22;34999;50.940;3.998;2023-12-20T02:08:06;5.00;99.90
48946;DHT22;34999;50.940;3.998;2023-12-20T02:10:35;5.10;99.90
48946;DHT22;34999;50.940;3.998;2023-12-20T02:13:06;5.20;99.90
48946;DHT22;34999;50.940;3.998;2023-12-20T02:15:34;5.20;99.90
48946;DHT22;34999;50.940;3.998;2023-12-20T02:18:06;5.30;99.90
48946;DHT22;34999;50.940;3.998;2023-12-20T02:20:34;5.30;99.90
48946;DHT22;34999;50.940;3.998;2023-12-20T02:23:04;5.30;99.90
48946;DHT22;34999;50.940;3.998;2023-12-20T02:25:32;5.30;99.90
48946;DHT22;34999;50.940;3.998;2023-12-20T02:28:00;5.30;99.90
48946;DHT22;34999;50.940;3.998;2023-12-20T02:30:29;5.30;99.90
48946;DHT22;34999;50.940;3.998;2023-12-20T02:32:59;5.30;99.90
48946;DHT22;34999;50.940;3.998;2023-12-20T02:35:28;5.30;99.90
48946;DHT22;34999;50.940;3.998;2023-12-20T02:37:56;5.40;99.90
48946;DHT22;34999;50.940;3.998;2023-12-20T02:40:25;5.40;99.90
48946;DHT22;34999;50.940;3.998;2023-12-20T02:42:54;5.40;99.90
48946;DHT22;34999;50.940;3.998;2023-12-20T02:45:22;5.40;99.90
48946;DHT22;34999;50.940;3.998;2023-12-20T02:47:50;5.40;99.90
48946;DHT22;34999;50.940;3.998;2023-12-20T02:50:18;5.50;99.90
48946;DHT22;34999;50.940;3.998;2023-12-20T02:52:47;5.50;99.90
48946;DHT22;34999;50.940;3.998;2023-12-20T02:55:15;5.50;99.90
48946;DHT22;34999;50.940;3.998;2023-12-20T02:57:44;5.60;99.90
48946;DHT22;34999;50.940;3.998;2023-12-20T03:00:14;5.60;99.90
48946;DHT22;34999;50.940;3.998;2023-12-20T03:02:42;5.60;99.90
48946;DHT22;34999;50.940;3.998;2023-12-20T03:05:10;5.60;99.90
48946;DHT22;34999;50.940;3.998;2023-12-20T03:07:38;5.70;99.90
48946;DHT22;34999;50.940;3.998;2023-12-20T03:10:07;5.70;99.90
48946;DHT22;34999;50.940;3.998;2023-12-20T03:12:47;5.60;99.90
48946;DHT22;34999;50.940;3.998;2023-12-20T03:15:16;5.60;99.90
48946;DHT22;34999;50.940;3.998;2023-12-20T03:17:44;5.60;99.90
48946;DHT22;34999;50.940;3.998;2023-12-20T03:20:13;5.60;99.90
48946;DHT22;34999;50.940;3.998;2023-12-20T03:22:42;5.50;99.90
48946;DHT22;34999;50.940;3.998;2023-12-20T03:25:10;5.50;99.90
48946;DHT22;34999;50.940;3.998;2023-12-20T03:27:38;5.50;99.90
48946;DHT22;34999;50.940;3.998;2023-12-20T03:30:09;5.50;99.90
48946;DHT22;34999;50.940;3.998;2023-12-20T03:32:38;5.50;99.90
48946;DHT22;34999;50.940;3.998;2023-12-20T03:35:06;5.50;99.90
48946;DHT22;34999;50.940;3.998;2023-12-20T03:37:35;5.50;99.90
48946;DHT22;34999;50.940;3.998;2023-12-20T03:40:04;5.50;99.90
48946;DHT22;34999;50.940;3.998;2023-12-20T03:42:32;5.60;99.90
48946;DHT22;34999;50.940;3.998;2023-12-20T03:45:02;5.50;99.90
48946;DHT22;34999;50.940;3.998;2023-12-20T03:47:31;5.50;99.90
48946;DHT22;34999;50.940;3.998;2023-12-20T03:49:59;5.50;99.90
48946;DHT22;34999;50.940;3.998;2023-12-20T03:52:28;5.40;99.90
48946;DHT22;34999;50.940;3.998;2023-12-20T03:54:57;5.40;99.90
48946;DHT22;34999;50.940;3.998;2023-12-20T03:57:25;5.40;99.90
48946;DHT22;34999;50.940;3.998;2023-12-20T03:59:53;5.30;99.90
48946;DHT22;34999;50.940;3.998;2023-12-20T04:02:21;5.30;99.90
48946;DHT22;34999;50.940;3.998;2023-12-20T04:04:51;5.20;99.90
48946;DHT22;34999;50.940;3.998;2023-12-20T04:07:20;5.30;99.90
48946;DHT22;34999;50.940;3.998;2023-12-20T04:09:48;5.30;99.90
48946;DHT22;34999;50.940;3.998;2023-12-20T04:12:16;5.20;99.90
48946;DHT22;34999;50.940;3.998;2023-12-20T04:14:45;5.20;99.90
48946;DHT22;34999;50.940;3.998;2023-12-20T04:17:13;5.20;99.90
48946;DHT22;34999;50.940;3.998;2023-12-20T04:19:42;5.10;99.90
48946;DHT22;34999;50.940;3.998;2023-12-20T04:22:12;5.20;99.90
48946;DHT22;34999;50.940;3.998;2023-12-20T04:24:40;5.10;99.90
48946;DHT22;34999;50.940;3.998;2023-12-20T04:27:10;5.10;99.90
48946;DHT22;34999;50.940;3.998;2023-12-20T04:29:38;5.10;99.90
48946;DHT22;34999;50.940;3.998;2023-12-20T04:32:08;5.10;99.90
48946;DHT22;34999;50.940;3.998;2023-12-20T04:34:37;5.10;99.90
48946;DHT22;34999;50.940;3.998;2023-12-20T04:37:05;5.10;99.90
48946;DHT22;34999;50.940;3.998;2023-12-20T04:39:34;5.10;99.90
48946;DHT22;34999;50.940;3.998;2023-12-20T04:42:03;5.20;99.90
48946;DHT22;34999;50.940;3.998;2023-12-20T04:44:31;5.20;99.90
48946;DHT22;34999;50.940;3.998;2023-12-20T04:47:00;5.10;99.90
48946;DHT22;34999;50.940;3.998;2023-12-20T04:49:28;5.10;99.90
48946;DHT22;34999;50.940;3.998;2023-12-20T04:51:57;5.10;99.90
48946;DHT22;34999;50.940;3.998;2023-12-20T04:54:25;5.00;99.90
48946;DHT22;34999;50.940;3.998;2023-12-20T04:56:54;5.00;99.90
48946;DHT22;34999;50.940;3.998;2023-12-20T04:59:23;4.90;99.90
48946;DHT22;34999;50.940;3.998;2023-12-20T05:01:51;4.90;99.90
48946;DHT22;34999;50.940;3.998;2023-12-20T05:04:19;5.00;99.90
48946;DHT22;34999;50.940;3.998;2023-12-20T05:06:48;4.90;99.90
48946;DHT22;34999;50.940;3.998;2023-12-20T05:09:16;4.90;99.90
48946;DHT22;34999;50.940;3.998;2023-12-20T05:11:45;4.80;99.90
48946;DHT22;34999;50.940;3.998;2023-12-20T05:14:15;4.80;99.90
48946;DHT22;34999;50.940;3.998;2023-12-20T05:16:43;4.80;99.90
48946;DHT22;34999;50.940;3.998;2023-12-20T05:19:11;4.80;99.90
48946;DHT22;34999;50.940;3.998;2023-12-20T05:21:41;4.80;99.90
48946;DHT22;34999;50.940;3.998;2023-12-20T05:24:09;4.80;99.90
48946;DHT22;34999;50.940;3.998;2023-12-20T05:26:37;4.80;99.90
48946;DHT22;34999;50.940;3.998;2023-12-20T05:29:06;4.80;99.90
48946;DHT22;34999;50.940;3.998;2023-12-20T05:31:35;4.80;99.90
48946;DHT22;34999;50.940;3.998;2023-12-20T05:34:03;4.80;99.90
48946;DHT22;34999;50.940;3.998;2023-12-20T05:36:32;4.70;99.90
48946;DHT22;34999;50.940;3.998;2023-12-20T05:39:00;4.80;99.90
48946;DHT22;34999;50.940;3.998;2023-12-20T05:41:29;4.80;99.90
48946;DHT22;34999;50.940;3.998;2023-12-20T05:43:57;4.80;99.90
48946;DHT22;34999;50.940;3.998;2023-12-20T05:46:26;4.80;99.90
48946;DHT22;34999;50.940;3.998;2023-12-20T05:48:56;4.80;99.90
48946;DHT22;34999;50.940;3.998;2023-12-20T05:51:24;4.80;99.90
48946;DHT22;34999;50.940;3.998;2023-12-20T05:53:52;4.80;99.90
48946;DHT22;34999;50.940;3.998;2023-12-20T05:56:20;4.80;99.90
48946;DHT22;34999;50.940;3.998;2023-12-20T05:58:49;4.80;99.90
48946;DHT22;34999;50.940;3.998;2023-12-20T06:01:17;4.90;99.90
48946;DHT22;34999;50.940;3.998;2023-12-20T06:03:46;4.90;99.90
48946;DHT22;34999;50.940;3.998;2023-12-20T06:06:15;5.00;99.90
48946;DHT22;34999;50.940;3.998;2023-12-20T06:08:44;5.00;99.90
48946;DHT22;34999;50.940;3.998;2023-12-20T06:11:12;5.10;99.90
48946;DHT22;34999;50.940;3.998;2023-12-20T06:13:41;5.00;99.90
48946;DHT22;34999;50.940;3.998;2023-12-20T06:16:10;5.00;99.90
48946;DHT22;34999;50.940;3.998;2023-12-20T06:18:38;5.00;99.90
48946;DHT22;34999;50.940;3.998;2023-12-20T06:21:07;4.90;99.90
48946;DHT22;34999;50.940;3.998;2023-12-20T06:23:41;4.80;99.90
48946;DHT22;34999;50.940;3.998;2023-12-20T06:26:09;4.80;99.90
48946;DHT22;34999;50.940;3.998;2023-12-20T06:28:37;4.80;99.90
48946;DHT22;34999;50.940;3.998;2023-12-20T06:31:08;4.80;99.90
48946;DHT22;34999;50.940;3.998;2023-12-20T06:33:36;4.80;99.90
48946;DHT22;34999;50.940;3.998;2023-12-20T06:36:07;4.80;99.90
48946;DHT22;34999;50.940;3.998;2023-12-20T06:38:38;4.80;99.90
48946;DHT22;34999;50.940;3.998;2023-12-20T06:41:08;4.90;99.90
48946;DHT22;34999;50.940;3.998;2023-12-20T06:43:36;4.90;99.90
48946;DHT22;34999;50.940;3.998;2023-12-20T06:46:15;4.90;99.90
48946;DHT22;34999;50.940;3.998;2023-12-20T06:48:44;4.80;99.90
48946;DHT22;34999;50.940;3.998;2023-12-20T06:51:15;4.80;99.90
48946;DHT22;34999;50.940;3.998;2023-12-20T06:53:43;4.80;99.90
48946;DHT22;34999;50.940;3.998;2023-12-20T06:56:13;4.80;99.90
48946;DHT22;34999;50.940;3.998;2023-12-20T06:58:45;4.80;99.90
48946;DHT22;34999;50.940;3.998;2023-12-20T07:01:14;4.80;99.90
48946;DHT22;34999;50.940;3.998;2023-12-20T07:03:43;4.80;99.90
48946;DHT22;34999;50.940;3.998;2023-12-20T07:06:11;4.80;99.90
48946;DHT22;34999;50.940;3.998;2023-12-20T07:08:40;4.70;99.90
48946;DHT22;34999;50.940;3.998;2023-12-20T07:11:09;4.70;99.90
48946;DHT22;34999;50.940;3.998;2023-12-20T07:13:38;4.70;99.90
48946;DHT22;34999;50.940;3.998;2023-12-20T07:16:09;4.70;99.90
48946;DHT22;34999;50.940;3.998;2023-12-20T07:18:38;4.60;99.90
48946;DHT22;34999;50.940;3.998;2023-12-20T07:21:08;4.60;99.90
48946;DHT22;34999;50.940;3.998;2023-12-20T07:23:36;4.70;99.90
48946;DHT22;34999;50.940;3.998;2023-12-20T07:26:04;4.70;99.90
48946;DHT22;34999;50.940;3.998;2023-12-20T07:28:33;4.60;99.90
48946;DHT22;34999;50.940;3.998;2023-12-20T07:31:03;4.60;99.90
48946;DHT22;34999;50.940;3.998;2023-12-20T07:33:32;4.60;99.90
48946;DHT22;34999;50.940;3.998;2023-12-20T07:36:06;4.60;99.90
48946;DHT22;34999;50.940;3.998;2023-12-20T07:38:35;4.60;99.90
48946;DHT22;34999;50.940;3.998;2023-12-20T07:41:03;4.70;99.90
48946;DHT22;34999;50.940;3.998;2023-12-20T07:43:32;4.60;99.90
48946;DHT22;34999;50.940;3.998;2023-12-20T07:46:05;4.70;99.90
48946;DHT22;34999;50.940;3.998;2023-12-20T07:48:35;4.60;99.90
48946;DHT22;34999;50.940;3.998;2023-12-20T07:51:04;4.70;99.90
48946;DHT22;34999;50.940;3.998;2023-12-20T07:53:33;4.60;99.90
48946;DHT22;34999;50.940;3.998;2023-12-20T07:56:01;4.60;99.90
48946;DHT22;34999;50.940;3.998;2023-12-20T07:58:29;4.50;99.90
48946;DHT22;34999;50.940;3.998;2023-12-20T08:01:17;4.50;99.90
48946;DHT22;34999;50.940;3.998;2023-12-20T08:03:48;4.60;99.90
48946;DHT22;34999;50.940;3.998;2023-12-20T08:06:17;4.50;99.90
48946;DHT22;34999;50.940;3.998;2023-12-20T08:08:45;4.60;99.90
48946;DHT22;34999;50.940;3.998;2023-12-20T08:11:24;4.60;99.90
48946;DHT22;34999;50.940;3.998;2023-12-20T08:13:53;4.60;99.90
48946;DHT22;34999;50.940;3.998;2023-12-20T08:16:22;4.60;99.90
48946;DHT22;34999;50.940;3.998;2023-12-20T08:18:51;4.60;99.90
48946;DHT22;34999;50.940;3.998;2023-12-20T08:21:19;4.60;99.90
48946;DHT22;34999;50.940;3.998;2023-12-20T08:23:49;4.60;99.90
48946;DHT22;34999;50.940;3.998;2023-12-20T08:26:19;4.60;99.90
48946;DHT22;34999;50.940;3.998;2023-12-20T08:28:49;4.60;99.90
48946;DHT22;34999;50.940;3.998;2023-12-20T08:31:18;4.70;99.90
48946;DHT22;34999;50.940;3.998;2023-12-20T08:33:49;4.70;99.90
48946;DHT22;34999;50.940;3.998;2023-12-20T08:36:21;4.80;99.90
48946;DHT22;34999;50.940;3.998;2023-12-20T08:38:50;4.80;99.90
48946;DHT22;34999;50.940;3.998;2023-12-20T08:41:19;4.90;99.90
48946;DHT22;34999;50.940;3.998;2023-12-20T08:43:47;4.90;99.90
48946;DHT22;34999;50.940;3.998;2023-12-20T08:46:15;4.90;99.90
48946;DHT22;34999;50.940;3.998;2023-12-20T08:48:44;4.90;99.90
48946;DHT22;34999;50.940;3.998;2023-12-20T08:51:14;5.00;99.90
48946;DHT22;34999;50.940;3.998;2023-12-20T08:53:43;5.10;99.90
48946;DHT22;34999;50.940;3.998;2023-12-20T08:56:12;5.10;99.90
48946;DHT22;34999;50.940;3.998;2023-12-20T08:58:41;5.10;99.90
48946;DHT22;34999;50.940;3.998;2023-12-20T09:01:09;5.20;99.90
48946;DHT22;34999;50.940;3.998;2023-12-20T09:03:37;5.20;99.90
48946;DHT22;34999;50.940;3.998;2023-12-20T09:06:06;5.30;99.90
48946;DHT22;34999;50.940;3.998;2023-12-20T09:08:36;5.40;99.90
48946;DHT22;34999;50.940;3.998;2023-12-20T09:11:04;5.40;99.90
48946;DHT22;34999;50.940;3.998;2023-12-20T09:13:32;5.50;99.90
48946;DHT22;34999;50.940;3.998;2023-12-20T09:16:01;5.50;99.90
48946;DHT22;34999;50.940;3.998;2023-12-20T09:18:29;5.70;99.90
48946;DHT22;34999;50.940;3.998;2023-12-20T09:20:57;5.80;99.90
48946;DHT22;34999;50.940;3.998;2023-12-20T09:23:26;6.00;99.90
48946;DHT22;34999;50.940;3.998;2023-12-20T09:25:55;6.10;99.90
48946;DHT22;34999;50.940;3.998;2023-12-20T09:28:24;6.20;99.90
48946;DHT22;34999;50.940;3.998;2023-12-20T09:30:52;6.30;99.90
48946;DHT22;34999;50.940;3.998;2023-12-20T09:33:21;6.40;99.90
48946;DHT22;34999;50.940;3.998;2023-12-20T09:35:49;6.50;99.90
48946;DHT22;34999;50.940;3.998;2023-12-20T09:38:18;6.60;99.90
48946;DHT22;34999;50.940;3.998;2023-12-20T09:40:46;6.70;99.90
48946;DHT22;34999;50.940;3.998;2023-12-20T09:43:15;6.70;99.90
48946;DHT22;34999;50.940;3.998;2023-12-20T09:45:47;6.70;99.90
48946;DHT22;34999;50.940;3.998;2023-12-20T09:48:18;6.60;99.90
48946;DHT22;34999;50.940;3.998;2023-12-20T09:50:47;6.60;99.90
48946;DHT22;34999;50.940;3.998;2023-12-20T09:53:20;6.60;99.90
48946;DHT22;34999;50.940;3.998;2023-12-20T09:55:52;6.80;99.90
48946;DHT22;34999;50.940;3.998;2023-12-20T09:58:22;7.00;99.90
48946;DHT22;34999;50.940;3.998;2023-12-20T10:00:51;7.20;99.90
48946;DHT22;34999;50.940;3.998;2023-12-20T10:03:25;7.40;99.90
48946;DHT22;34999;50.940;3.998;2023-12-20T10:05:57;7.40;99.90
48946;DHT22;34999;50.940;3.998;2023-12-20T10:08:25;7.30;99.90
48946;DHT22;34999;50.940;3.998;2023-12-20T10:10:55;7.30;99.90
48946;DHT22;34999;50.940;3.998;2023-12-20T10:13:26;7.30;99.90
48946;DHT22;34999;50.940;3.998;2023-12-20T10:15:55;7.30;99.90
48946;DHT22;34999;50.940;3.998;2023-12-20T10:18:24;7.30;99.90
48946;DHT22;34999;50.940;3.998;2023-12-20T10:21:06;7.30;99.90
48946;DHT22;34999;50.940;3.998;2023-12-20T10:23:37;7.40;99.90
48946;DHT22;34999;50.940;3.998;2023-12-20T10:26:06;7.40;99.90
48946;DHT22;34999;50.940;3.998;2023-12-20T10:28:36;7.40;99.90
48946;DHT22;34999;50.940;3.998;2023-12-20T10:31:04;7.40;99.90
48946;DHT22;34999;50.940;3.998;2023-12-20T10:33:33;7.50;99.90
48946;DHT22;34999;50.940;3.998;2023-12-20T10:36:02;7.50;99.90
48946;DHT22;34999;50.940;3.998;2023-12-20T10:38:31;7.50;99.90
48946;DHT22;34999;50.940;3.998;2023-12-20T10:41:00;7.60;99.90
48946;DHT22;34999;50.940;3.998;2023-12-20T10:43:33;7.60;99.90
48946;DHT22;34999;50.940;3.998;2023-12-20T10:46:05;7.50;99.90
48946;DHT22;34999;50.940;3.998;2023-12-20T10:48:34;7.50;99.90
48946;DHT22;34999;50.940;3.998;2023-12-20T10:51:05;7.50;99.90
48946;DHT22;34999;50.940;3.998;2023-12-20T10:53:34;7.50;99.90
48946;DHT22;34999;50.940;3.998;2023-12-20T10:56:04;7.50;99.90
48946;DHT22;34999;50.940;3.998;2023-12-20T10:58:34;7.50;99.90
48946;DHT22;34999;50.940;3.998;2023-12-20T11:01:05;7.60;99.90
48946;DHT22;34999;50.940;3.998;2023-12-20T11:03:35;7.60;99.90
48946;DHT22;34999;50.940;3.998;2023-12-20T11:06:10;7.60;99.90
48946;DHT22;34999;50.940;3.998;2023-12-20T11:08:48;7.60;99.90
48946;DHT22;34999;50.940;3.998;2023-12-20T11:11:25;7.60;99.90
48946;DHT22;34999;50.940;3.998;2023-12-20T11:13:58;7.70;99.90
48946;DHT22;34999;50.940;3.998;2023-12-20T11:16:31;7.70;99.90
48946;DHT22;34999;50.940;3.998;2023-12-20T11:19:14;7.70;99.90
48946;DHT22;34999;50.940;3.998;2023-12-20T11:21:42;7.80;99.90
48946;DHT22;34999;50.940;3.998;2023-12-20T11:24:10;7.80;99.90
48946;DHT22;34999;50.940;3.998;2023-12-20T11:26:46;7.80;99.90
48946;DHT22;34999;50.940;3.998;2023-12-20T11:29:31;7.90;99.90
48946;DHT22;34999;50.940;3.998;2023-12-20T11:32:02;8.00;99.90
48946;DHT22;34999;50.940;3.998;2023-12-20T11:34:32;8.00;99.90
48946;DHT22;34999;50.940;3.998;2023-12-20T11:37:02;8.00;99.90
48946;DHT22;34999;50.940;3.998;2023-12-20T11:39:31;8.10;99.90
48946;DHT22;34999;50.940;3.998;2023-12-20T11:42:04;8.10;99.90
48946;DHT22;34999;50.940;3.998;2023-12-20T11:44:33;8.10;99.90
48946;DHT22;34999;50.940;3.998;2023-12-20T11:47:03;8.10;99.90
48946;DHT22;34999;50.940;3.998;2023-12-20T11:49:32;8.10;99.90
48946;DHT22;34999;50.940;3.998;2023-12-20T11:52:00;8.20;99.90
48946;DHT22;34999;50.940;3.998;2023-12-20T11:54:30;8.20;99.90
48946;DHT22;34999;50.940;3.998;2023-12-20T11:56:58;8.30;99.90
48946;DHT22;34999;50.940;3.998;2023-12-20T11:59:26;8.30;99.90
48946;DHT22;34999;50.940;3.998;2023-12-20T12:01:55;8.40;99.90
48946;DHT22;34999;50.940;3.998;2023-12-20T12:04:30;8.40;99.90
48946;DHT22;34999;50.940;3.998;2023-12-20T12:06:58;8.40;99.90
48946;DHT22;34999;50.940;3.998;2023-12-20T12:09:27;8.50;99.90
48946;DHT22;34999;50.940;3.998;2023-12-20T12:11:56;8.40;99.90
48946;DHT22;34999;50.940;3.998;2023-12-20T12:14:24;8.40;99.90
48946;DHT22;34999;50.940;3.998;2023-12-20T12:16:52;8.40;99.90
48946;DHT22;34999;50.940;3.998;2023-12-20T12:19:21;8.40;99.90
48946;DHT22;34999;50.940;3.998;2023-12-20T12:21:56;8.40;99.90
48946;DHT22;34999;50.940;3.998;2023-12-20T12:24:32;8.40;99.90
48946;DHT22;34999;50.940;3.998;2023-12-20T12:27:00;8.30;99.90
48946;DHT22;34999;50.940;3.998;2023-12-20T12:29:28;8.30;99.90
48946;DHT22;34999;50.940;3.998;2023-12-20T12:31:56;8.30;99.90
48946;DHT22;34999;50.940;3.998;2023-12-20T12:34:27;8.30;99.90
48946;DHT22;34999;50.940;3.998;2023-12-20T12:36:57;8.40;99.90
48946;DHT22;34999;50.940;3.998;2023-12-20T12:39:26;8.40;99.90
48946;DHT22;34999;50.940;3.998;2023-12-20T12:41:54;8.40;99.90
48946;DHT22;34999;50.940;3.998;2023-12-20T12:44:22;8.40;99.90
48946;DHT22;34999;50.940;3.998;2023-12-20T12:46:53;8.40;99.90
48946;DHT22;34999;50.940;3.998;2023-12-20T12:49:21;8.40;99.90
48946;DHT22;34999;50.940;3.998;2023-12-20T12:51:50;8.50;99.90
48946;DHT22;34999;50.940;3.998;2023-12-20T12:54:20;8.60;99.90
48946;DHT22;34999;50.940;3.998;2023-12-20T12:56:52;8.70;99.90
48946;DHT22;34999;50.940;3.998;2023-12-20T12:59:20;8.80;99.90
48946;DHT22;34999;50.940;3.998;2023-12-20T13:01:49;8.90;99.90
48946;DHT22;34999;50.940;3.998;2023-12-20T13:04:17;9.00;99.90
48946;DHT22;34999;50.940;3.998;2023-12-20T13:06:45;9.00;99.90
48946;DHT22;34999;50.940;3.998;2023-12-20T13:09:14;9.00;99.90
48946;DHT22;34999;50.940;3.998;2023-12-20T13:11:44;9.00;99.90
48946;DHT22;34999;50.940;3.998;2023-12-20T13:14:12;9.10;99.90
48946;DHT22;34999;50.940;3.998;2023-12-20T13:16:42;9.10;99.90
48946;DHT22;34999;50.940;3.998;2023-12-20T13:19:12;9.00;99.90
48946;DHT22;34999;50.940;3.998;2023-12-20T13:21:43;9.10;99.90
48946;DHT22;34999;50.940;3.998;2023-12-20T13:24:11;9.00;99.90
48946;DHT22;34999;50.940;3.998;2023-12-20T13:26:40;8.90;99.90
48946;DHT22;34999;50.940;3.998;2023-12-20T13:29:09;9.00;99.90
48946;DHT22;34999;50.940;3.998;2023-12-20T13:31:38;9.00;99.90
48946;DHT22;34999;50.940;3.998;2023-12-20T13:34:08;9.00;99.90
48946;DHT22;34999;50.940;3.998;2023-12-20T13:36:37;9.10;99.90
48946;DHT22;34999;50.940;3.998;2023-12-20T13:39:05;9.20;99.90
48946;DHT22;34999;50.940;3.998;2023-12-20T13:41:34;9.20;99.90
48946;DHT22;34999;50.940;3.998;2023-12-20T13:44:03;9.20;99.90
48946;DHT22;34999;50.940;3.998;2023-12-20T13:46:32;9.20;99.90
48946;DHT22;34999;50.940;3.998;2023-12-20T13:49:01;9.20;99.90
48946;DHT22;34999;50.940;3.998;2023-12-20T13:51:30;9.10;99.90
48946;DHT22;34999;50.940;3.998;2023-12-20T13:53:58;9.10;99.90
48946;DHT22;34999;50.940;3.998;2023-12-20T13:56:26;9.10;99.90
48946;DHT22;34999;50.940;3.998;2023-12-20T13:58:55;9.00;99.90
48946;DHT22;34999;50.940;3.998;2023-12-20T14:01:23;9.00;99.90
48946;DHT22;34999;50.940;3.998;2023-12-20T14:03:53;9.00;99.90
48946;DHT22;34999;50.940;3.998;2023-12-20T14:06:21;9.00;99.90
48946;DHT22;34999;50.940;3.998;2023-12-20T14:08:49;8.90;99.90
48946;DHT22;34999;50.940;3.998;2023-12-20T14:11:17;8.90;99.90
48946;DHT22;34999;50.940;3.998;2023-12-20T14:13:46;8.90;99.90
48946;DHT22;34999;50.940;3.998;2023-12-20T14:16:15;8.90;99.90
48946;DHT22;34999;50.940;3.998;2023-12-20T14:18:43;9.00;99.90
48946;DHT22;34999;50.940;3.998;2023-12-20T14:21:13;8.90;99.90
48946;DHT22;34999;50.940;3.998;2023-12-20T14:23:41;8.90;99.90
48946;DHT22;34999;50.940;3.998;2023-12-20T14:26:13;8.90;99.90
48946;DHT22;34999;50.940;3.998;2023-12-20T14:28:42;9.00;99.90
48946;DHT22;34999;50.940;3.998;2023-12-20T14:31:10;9.00;99.90
48946;DHT22;34999;50.940;3.998;2023-12-20T14:33:39;9.10;99.90
48946;DHT22;34999;50.940;3.998;2023-12-20T14:36:09;9.10;99.90
48946;DHT22;34999;50.940;3.998;2023-12-20T14:38:38;9.10;99.90
48946;DHT22;34999;50.940;3.998;2023-12-20T14:41:08;9.10;99.90
48946;DHT22;34999;50.940;3.998;2023-12-20T14:43:36;9.10;99.90
48946;DHT22;34999;50.940;3.998;2023-12-20T14:46:04;9.10;99.90
48946;DHT22;34999;50.940;3.998;2023-12-20T14:48:33;9.10;99.90
48946;DHT22;34999;50.940;3.998;2023-12-20T14:51:01;9.10;99.90
48946;DHT22;34999;50.940;3.998;2023-12-20T14:53:29;9.10;99.90
48946;DHT22;34999;50.940;3.998;2023-12-20T14:55:59;9.10;99.90
48946;DHT22;34999;50.940;3.998;2023-12-20T14:58:29;9.10;99.90
48946;DHT22;34999;50.940;3.998;2023-12-20T15:00:58;9.00;99.90
48946;DHT22;34999;50.940;3.998;2023-12-20T15:03:27;9.00;99.90
48946;DHT22;34999;50.940;3.998;2023-12-20T15:05:56;9.00;99.90
48946;DHT22;34999;50.940;3.998;2023-12-20T15:08:26;9.00;99.90
48946;DHT22;34999;50.940;3.998;2023-12-20T15:10:54;8.90;99.90
48946;DHT22;34999;50.940;3.998;2023-12-20T15:13:27;8.90;99.90
48946;DHT22;34999;50.940;3.998;2023-12-20T15:15:55;8.90;99.90
48946;DHT22;34999;50.940;3.998;2023-12-20T15:18:23;8.90;99.90
48946;DHT22;34999;50.940;3.998;2023-12-20T15:20:52;8.90;99.90
48946;DHT22;34999;50.940;3.998;2023-12-20T15:23:21;8.90;99.90
48946;DHT22;34999;50.940;3.998;2023-12-20T15:25:52;8.90;99.90
48946;DHT22;34999;50.940;3.998;2023-12-20T15:28:20;8.90;99.90
48946;DHT22;34999;50.940;3.998;2023-12-20T15:30:50;8.90;99.90
48946;DHT22;34999;50.940;3.998;2023-12-20T15:33:18;8.90;99.90
48946;DHT22;34999;50.940;3.998;2023-12-20T15:35:47;8.90;99.90
48946;DHT22;34999;50.940;3.998;2023-12-20T15:38:15;8.90;99.90
48946;DHT22;34999;50.940;3.998;2023-12-20T15:40:44;8.90;99.90
48946;DHT22;34999;50.940;3.998;2023-12-20T15:43:12;8.90;99.90
48946;DHT22;34999;50.940;3.998;2023-12-20T15:45:40;8.90;99.90
48946;DHT22;34999;50.940;3.998;2023-12-20T15:48:10;8.90;99.90
48946;DHT22;34999;50.940;3.998;2023-12-20T15:50:44;8.90;99.90
48946;DHT22;34999;50.940;3.998;2023-12-20T15:53:12;8.90;99.90
48946;DHT22;34999;50.940;3.998;2023-12-20T15:55:59;8.90;99.90
48946;DHT22;34999;50.940;3.998;2023-12-20T15:58:29;8.90;99.90